Galena, Nevada Weather observations

Data are for 10 minute period ending at time listed.
 Day   Time    Ave.   Ave.  Ave.  Vector   Max.   Total    Solar   
  of    of     Air    Rel.  Wind   Wind    Wind  Precip.   Rad.    
Year   Day     Temp.  Hum.  Speed  Dir.    Gust                    
2015   (PST)    F      %     mph   deg.    mph     in.     W/m2    
------------------------------------------------------------------- 
 123   21:00   57.0    29    4.0   347     14.0    0.54       0  
 123   22:00   53.0    36    2.0   249      7.0    0.54       0  
 123   23:00   51.0    41    5.0   213      8.0    0.54       0  
 124    0:00   51.0    40    6.0   259      8.0    0.54       0  
 124    1:00   47.0    42    2.0   277      6.0    0.54       0  
 124    2:00   44.0    47    3.0   274      6.0    0.54       0  
 124    3:00   43.0    48    2.0   349      6.0    0.54       0  
 124    4:00   41.0    55    4.0   344      6.0    0.54       0  
 124    5:00   42.0    57    2.0   301      5.0    0.54       0  
 124    6:00   48.0    52    2.0   254      5.0    0.54      41  
 124    7:00   57.0    35    3.0   125      8.0    0.54     214  
 124    8:00   60.0    31    4.0   113     12.0    0.54     424  
 124    9:00   63.0    27    5.0    70     12.0    0.54     624  
 124   10:00   65.0    23    4.0   103     12.0    0.54     763  
 124   11:00   66.0    20    4.0   291     16.0    0.54     761  
 124   12:00   70.0    19    6.0    48     17.0    0.54     996  
 124   13:00   70.0    18    4.0   250     15.0    0.54     914  
 124   14:00   70.0    19    4.0    22     15.0    0.54     434  
 124   15:00   66.0    21   13.0   261     23.0    0.54     322  
 124   16:00   66.0    25    7.0   257     23.0    0.54     296  
 124   17:00   60.0    32   12.0    36     22.0    0.54     156  
 124   18:00   59.0    40    5.0   359     18.0    0.54     108  
 124   19:00   57.0    43    4.0   243      7.0    0.54      36  
 124   20:00   55.0    43    4.0   263     15.0    0.54       1  

Return to Galena, Nevada graphs page.


Western Regional Climate Center,wrcc@dri.edu